createdAt,value
2022-10-28T00:09:30.795Z,3.10
2022-10-28T00:19:32.224Z,2.85
2022-10-28T00:29:33.741Z,2.88
2022-10-28T00:39:35.126Z,2.42
2022-10-28T00:49:36.533Z,2.92
2022-10-28T00:59:39.713Z,2.72
2022-10-28T01:09:41.202Z,2.83
2022-10-28T01:19:51.250Z,1.95
2022-10-28T01:30:14.756Z,3.17
2022-10-28T01:40:25.082Z,3.00
2022-10-28T01:50:35.343Z,2.15
2022-10-28T02:00:36.849Z,2.75
2022-10-28T02:10:39.488Z,2.28
2022-10-28T02:20:53.879Z,2.38
2022-10-28T02:31:07.379Z,2.55
2022-10-28T02:41:13.829Z,1.73
2022-10-28T02:51:17.017Z,2.22
2022-10-28T03:01:18.557Z,2.25
2022-10-28T03:11:20.154Z,2.00
2022-10-28T03:21:21.637Z,2.60
2022-10-28T03:31:23.104Z,2.90
2022-10-28T03:41:24.539Z,2.30
2022-10-28T03:51:26.032Z,2.30
2022-10-28T04:01:27.582Z,3.28
2022-10-28T04:11:29.078Z,2.17
2022-10-28T04:21:30.456Z,2.40
2022-10-28T04:31:31.870Z,2.88
2022-10-28T04:41:33.242Z,3.00
2022-10-28T04:51:34.704Z,2.60
2022-10-28T05:01:36.423Z,2.67
2022-10-28T05:11:39.241Z,2.60
2022-10-28T05:21:40.687Z,2.67
2022-10-28T05:31:42.184Z,2.83
2022-10-28T05:41:43.597Z,3.00
2022-10-28T05:51:45.986Z,2.45
2022-10-28T06:01:47.557Z,3.00
2022-10-28T06:11:47.445Z,2.80
2022-10-28T06:21:48.857Z,2.50
2022-10-28T06:31:50.269Z,3.25
2022-10-28T06:41:51.703Z,2.17
2022-10-28T06:51:54.601Z,3.15
2022-10-28T07:01:56.045Z,3.30
2022-10-28T07:12:02.249Z,2.72
2022-10-28T07:32:07.307Z,2.35
2022-10-28T07:42:08.733Z,2.65
2022-10-28T07:52:10.176Z,2.22
2022-10-28T08:02:16.492Z,2.67
2022-10-28T08:12:17.878Z,2.58
2022-10-28T08:22:19.282Z,2.42
2022-10-28T08:32:20.786Z,2.53
2022-10-28T08:42:49.620Z,3.10
2022-10-28T08:53:03.764Z,2.50
2022-10-28T09:03:11.094Z,2.42
2022-10-28T09:13:33.643Z,2.30
2022-10-28T09:23:44.146Z,2.92
2022-10-28T09:34:07.090Z,2.70
2022-10-28T09:44:32.559Z,2.20
2022-10-28T09:54:42.420Z,2.65
2022-10-28T10:04:43.820Z,2.70
2022-10-28T10:14:47.720Z,2.33
2022-10-28T10:24:50.967Z,3.25
2022-10-28T10:35:12.732Z,2.55
2022-10-28T10:45:27.094Z,2.45
2022-10-28T10:55:32.553Z,2.58
2022-10-28T11:05:38.049Z,2.83
2022-10-28T11:15:40.155Z,2.17
2022-10-28T11:25:43.345Z,3.35
2022-10-28T11:36:13.960Z,1.98
2022-10-28T11:46:37.750Z,2.97
2022-10-28T11:56:42.091Z,2.60
2022-10-28T12:06:55.417Z,2.13
2022-10-28T12:17:03.719Z,2.22
2022-10-28T12:37:24.755Z,3.15
2022-10-28T12:47:59.686Z,2.15
2022-10-28T13:09:44.655Z,3.13
2022-10-28T13:19:54.921Z,1.85
2022-10-28T13:29:57.550Z,1.83
2022-10-28T13:39:58.917Z,2.10
2022-10-28T13:50:06.468Z,2.65
2022-10-28T14:00:17.317Z,2.07
2022-10-28T14:10:22.689Z,3.70
2022-10-28T14:20:45.663Z,2.20
2022-10-28T14:31:12.668Z,2.38
2022-10-28T14:41:47.902Z,3.03
2022-10-28T14:51:49.336Z,2.47
2022-10-28T15:02:01.365Z,2.45
2022-10-28T15:12:06.461Z,2.97
2022-10-28T15:22:13.660Z,2.33
2022-10-28T15:32:21.202Z,2.65
2022-10-28T15:42:36.347Z,1.97
2022-10-28T15:52:40.178Z,2.45
2022-10-28T16:02:42.336Z,3.00
2022-10-28T16:12:44.207Z,2.95
2022-10-28T16:22:45.634Z,3.58
2022-10-28T16:32:47.553Z,2.35
2022-10-28T16:42:48.953Z,3.08
2022-10-28T16:52:50.352Z,3.88
2022-10-28T17:02:53.909Z,3.30
2022-10-28T17:12:55.668Z,3.30
2022-10-28T17:22:58.043Z,3.35
2022-10-28T17:32:59.434Z,3.13
2022-10-28T17:43:00.922Z,3.33
2022-10-28T17:53:02.505Z,3.25
2022-10-28T18:03:04.882Z,3.65
2022-10-28T18:13:06.420Z,3.42
2022-10-28T18:23:07.795Z,3.53
2022-10-28T18:33:09.492Z,3.95
2022-10-28T18:43:10.977Z,3.67
2022-10-28T18:53:12.547Z,3.65
2022-10-28T19:03:21.589Z,3.47
2022-10-28T19:13:22.956Z,3.72
2022-10-28T19:23:24.366Z,3.35
2022-10-28T19:33:27.187Z,3.53
2022-10-28T19:43:28.742Z,3.75
2022-10-28T19:53:30.145Z,4.10
2022-10-28T20:03:34.535Z,5.15
2022-10-28T20:13:37.179Z,4.82
2022-10-28T20:23:38.817Z,4.30
2022-10-28T20:33:41.162Z,4.38
2022-10-28T20:43:42.643Z,3.90
2022-10-28T20:53:44.059Z,3.60
2022-10-28T21:03:45.626Z,4.25
2022-10-28T21:13:52.092Z,4.90
2022-10-28T21:23:53.566Z,4.57
2022-10-28T21:33:55.117Z,5.88
2022-10-28T21:43:56.592Z,4.88
2022-10-28T21:53:58.049Z,5.45
2022-10-28T22:03:59.419Z,4.05
2022-10-28T22:14:01.968Z,5.70
2022-10-28T22:24:03.734Z,6.45
2022-10-28T22:34:05.539Z,4.38
2022-10-28T22:44:07.512Z,4.20
2022-10-28T22:54:08.960Z,3.60
2022-10-28T23:04:10.953Z,3.80
2022-10-28T23:14:12.423Z,4.72
2022-10-28T23:24:13.887Z,4.85
2022-10-28T23:34:15.263Z,3.53
2022-10-28T23:44:16.661Z,4.60
2022-10-28T23:54:18.071Z,4.35
